Flight Track Log - Related Links

Times and Time Zones

All times are in EDT time to prevent confusion due to time zone crossing. See the TRS151 flight status page for this flight to view local times or setup timezone preferences in your user account.

Time Position Orientation Groundspeed Altitude Reporting Facility
EDT Latitude Longitude Course Direction KTS MPH feet Rate Location/Type
Sat 01:48:38 PM 38.8167 -77.0333 165° South 151 174 1,500  Level Potomac TRACON
Sat 01:49:38 PM 38.7667 -77.0167 165° South 229 264 2,500 1,488 Climbing Potomac TRACON
Sat 01:50:39 PM 38.7333 -77.0833 237° Southwest 241 277 4,500 2,231 Climbing Potomac TRACON
Sat 01:51:39 PM 38.7167 -77.1833 258° West 243 280 7,000 2,450 Climbing Potomac TRACON
Sat 01:52:39 PM 38.7167 -77.2500 270° West 245 282 9,400 2,100 Climbing Potomac TRACON
Sat 01:53:39 PM 38.7667 -77.2833 333° Northwest 270 311 11,200 2,150 Climbing Potomac TRACON
Sat 01:54:39 PM 38.8500 -77.3167 343° North 262 302 13,700 2,018 Climbing Potomac TRACON
Sat 01:55:29 PM 38.8978 -77.3247 353° North 271 312 14,900 1,737 Climbing Washington Center
Sat 01:56:33 PM 38.9725 -77.3428 349° North 271 312 17,000 1,016 Climbing Washington Center
Sat 01:57:33 PM 39.0631 -77.3589 352° North 275 316 17,000  Level Washington Center
Sat 01:58:37 PM 39.1417 -77.3586 360° North 281 323 17,000  Level Washington Center
Sat 01:59:37 PM 39.2219 -77.3567 North 283 326 17,000  Level Washington Center
Sat 02:00:41 PM 39.2808 -77.4058 327° Northwest 274 315 17,000 912 Level Washington Center
Sat 02:01:42 PM 39.3325 -77.4917 308° West 301 346 18,900 2,516 Climbing Washington Center
Sat 02:02:45 PM 39.4025 -77.5844 314° West 305 351 22,200 2,274 Climbing Washington Center
Sat 02:03:46 PM 39.4700 -77.6531 322° Northwest 315 362 23,600 1,082 Climbing Washington Center
Sat 02:04:47 PM 39.5167 -77.7567 300° West 328 377 24,400 720 Climbing Washington Center
Sat 02:05:51 PM 39.5681 -77.8697 301° West 356 410 25,100 1,009 Climbing Washington Center
Sat 02:06:40 PM 39.6106 -77.9661 300° West 374 430 26,300 1,784 Climbing Cleveland Center
Sat 02:07:42 PM 39.6711 -78.1050 300° West 371 427 28,400 1,707 Climbing Cleveland Center
Sat 02:08:43 PM 39.7211 -78.2158 300° West 360 414 29,800 1,171 Climbing Cleveland Center
Sat 02:09:45 PM 39.7700 -78.3289 299° West 360 414 30,800 1,065 Climbing Cleveland Center
Sat 02:10:47 PM 39.8225 -78.4453 300° West 359 413 32,000 581 Climbing Cleveland Center
Sat 02:11:49 PM 39.8722 -78.5603 299° West 363 418 32,000  Level Cleveland Center
Sat 02:12:51 PM 39.9225 -78.6742 300° West 363 418 32,000  Level Cleveland Center
Sat 02:13:52 PM 39.9722 -78.7858 300° West 363 418 32,000  Level Cleveland Center
Sat 02:14:54 PM 40.0289 -78.9192 299° West 357 411 32,000  Level Cleveland Center
Sat 02:15:56 PM 40.0775 -79.0303 300° West 355 409 32,000  Level Cleveland Center
Sat 02:16:57 PM 40.1236 -79.1389 299° West 347 399 32,000  Level Cleveland Center
Sat 02:17:59 PM 40.1703 -79.2486 299° West 346 398 32,000  Level Cleveland Center
Sat 02:19:01 PM 40.2156 -79.3525 300° West 342 394 32,000  Level Cleveland Center
Sat 02:20:02 PM 40.2606 -79.4608 299° West 341 392 32,000  Level Cleveland Center
Sat 02:21:04 PM 40.3058 -79.5667 299° West 339 390 32,000  Level Cleveland Center
Sat 02:22:05 PM 40.3611 -79.6978 299° West 340 391 32,000  Level Cleveland Center
Sat 02:23:07 PM 40.4075 -79.8081 299° West 342 394 32,000  Level Cleveland Center
Sat 02:24:09 PM 40.4533 -79.9169 299° West 344 396 32,000  Level Cleveland Center
Sat 02:25:10 PM 40.5017 -80.0303 299° West 346 398 32,000  Level Cleveland Center
Sat 02:26:12 PM 40.5472 -80.1411 298° West 346 398 32,000  Level Cleveland Center
Sat 02:27:13 PM 40.5931 -80.2517 299° West 346 398 32,000  Level Cleveland Center
Sat 02:28:15 PM 40.6400 -80.3650 299° West 347 399 32,000  Level Cleveland Center
Sat 02:29:16 PM 40.6858 -80.4781 298° West 347 399 32,000  Level Cleveland Center
Sat 02:30:18 PM 40.7408 -80.6108 299° West 347 399 32,000  Level Cleveland Center
Sat 02:31:19 PM 40.7839 -80.7133 299° West 348 400 32,000  Level Cleveland Center
Sat 02:32:21 PM 40.8322 -80.8236 300° West 349 402 32,000  Level Cleveland Center
Sat 02:33:22 PM 40.8956 -80.9225 310° West 352 405 32,000  Level Cleveland Center
Sat 02:34:24 PM 40.9550 -81.0236 308° West 352 405 32,000  Level Cleveland Center
Sat 02:35:25 PM 41.0242 -81.1389 309° West 351 404 32,000  Level Cleveland Center
Sat 02:36:27 PM 41.0850 -81.2414 308° West 351 404 32,000  Level Cleveland Center
Sat 02:37:28 PM 41.1458 -81.3442 308° West 351 404 32,000  Level Cleveland Center
Sat 02:38:30 PM 41.2092 -81.4514 308° West 354 407 32,000  Level Cleveland Center
Sat 02:39:31 PM 41.2700 -81.5542 308° West 354 407 32,000  Level Cleveland Center
Sat 02:40:33 PM 41.3297 -81.6572 308° West 354 407 32,000  Level Cleveland Center
Sat 02:41:34 PM 41.3967 -81.7706 308° West 354 407 32,000  Level Cleveland Center
Sat 02:42:36 PM 41.4575 -81.8750 308° West 354 407 32,000  Level Cleveland Center
Sat 02:43:37 PM 41.5186 -81.9786 308° West 354 407 32,000  Level Cleveland Center
Sat 02:44:39 PM 41.5800 -82.0844 308° West 354 407 32,000  Level Cleveland Center
Sat 02:45:40 PM 41.6400 -82.1894 307° West 355 409 32,000  Level Cleveland Center
Sat 02:46:42 PM 41.7086 -82.3089 308° West 355 409 32,000  Level Cleveland Center
Sat 02:47:43 PM 41.7681 -82.4133 307° West 355 409 32,000  Level Cleveland Center
Sat 02:48:45 PM 41.8286 -82.5189 308° West 355 409 32,000  Level Cleveland Center
Sat 02:49:46 PM 41.8894 -82.6225 308° West 354 407 32,000  Level Cleveland Center
Sat 02:50:48 PM 41.9486 -82.7281 307° West 355 409 32,000  Level Cleveland Center
Sat 02:51:49 PM 42.0083 -82.8333 307° West 355 409 32,000  Level Cleveland Center
Sat 02:52:51 PM 42.0672 -82.9383 307° West 355 409 32,000  Level Cleveland Center
Sat 02:53:52 PM 42.1267 -83.0444 307° West 355 409 32,000  Level Cleveland Center
Sat 02:54:54 PM 42.1972 -83.1719 307° West 355 409 32,000  Level Cleveland Center
Sat 02:55:56 PM 42.2533 -83.2725 307° West 355 409 32,000  Level Cleveland Center
Sat 02:56:57 PM 42.3131 -83.3806 307° West 355 409 32,000  Level Cleveland Center
Sat 02:57:59 PM 42.3719 -83.4869 307° West 353 406 32,000  Level Cleveland Center
Sat 02:59:00 PM 42.4411 -83.6100 307° West 352 405 32,000  Level Cleveland Center
Sat 03:00:02 PM 42.4989 -83.7164 306° West 352 405 32,000  Level Cleveland Center
Sat 03:01:04 PM 42.5569 -83.8214 307° West 351 404 32,000  Level Cleveland Center
Sat 03:02:05 PM 42.6161 -83.9294 307° West 354 407 32,000  Level Cleveland Center
Sat 03:03:07 PM 42.6742 -84.0364 306° West 354 407 32,000  Level Cleveland Center
Sat 03:04:08 PM 42.7331 -84.1444 307° West 354 407 32,000  Level Cleveland Center
Sat 03:05:10 PM 42.7789 -84.2611 298° West 357 411 32,000  Level Cleveland Center
Sat 03:06:11 PM 42.8114 -84.4019 288° West 359 413 32,000  Level Cleveland Center
Sat 03:07:13 PM 42.8414 -84.5314 288° West 358 412 32,000  Level Cleveland Center
Sat 03:08:15 PM 42.8706 -84.6603 287° West 358 412 32,000  Level Cleveland Center
Sat 03:09:16 PM 42.8986 -84.7878 287° West 356 410 32,000  Level Cleveland Center
Sat 03:10:18 PM 42.9331 -84.9428 287° West 357 411 32,000  Level Cleveland Center
Sat 03:11:20 PM 42.9617 -85.0714 287° West 357 411 32,000 -49 Level Cleveland Center
Sat 03:12:21 PM 42.9889 -85.2006 286° West 356 410 31,900 -293 Descending Cleveland Center
Sat 03:13:23 PM 43.0167 -85.3275 287° West 352 405 31,400 -488 Descending Cleveland Center
Sat 03:14:24 PM 43.0450 -85.4583 287° West 358 412 30,900 -732 Descending Cleveland Center
Sat 03:15:26 PM 43.0731 -85.5886 286° West 358 412 29,900 -968 Descending Cleveland Center
Sat 03:16:28 PM 43.1003 -85.7167 286° West 355 409 28,900 -1,073 Descending Cleveland Center
Sat 03:17:29 PM 43.1322 -85.8642 287° West 354 407 27,700 -1,073 Descending Cleveland Center
Sat 03:18:31 PM 43.1597 -85.9939 286° West 354 407 26,700 -1,113 Descending Cleveland Center
Sat 03:19:33 PM 43.1675 -86.1247 275° West 358 412 25,400 -1,610 Descending Cleveland Center
Sat 03:20:34 PM 43.1658 -86.2556 269° West 350 403 23,400 -2,072 Descending Cleveland Center
Sat 03:21:52 PM 43.1631 -86.4378 269° West 345 397 20,600 -2,057 Descending Chicago Center
Sat 03:22:54 PM 43.1611 -86.5683 269° West 345 397 18,600 -1,887 Descending Chicago Center
Sat 03:23:56 PM 43.1583 -86.6944 268° West 333 383 16,700 -1,902 Descending Chicago Center
Sat 03:24:57 PM 43.1558 -86.8142 268° West 318 366 14,700 -1,317 Descending Chicago Center
Sat 03:25:59 PM 43.1533 -86.9350 268° West 319 367 14,000 -339 Descending Chicago Center
Sat 03:27:01 PM 43.1508 -87.0825 269° West 323 372 14,000 -390 Level Chicago Center
Sat 03:28:02 PM 43.1475 -87.2056 268° West 322 371 13,200 -1,171 Descending Chicago Center
Sat 03:29:04 PM 43.1439 -87.3244 268° West 316 364 11,600 -1,258 Descending Chicago Center
Sat 03:30:06 PM 43.1372 -87.4436 266° West 278 320 10,600 -829 Descending Chicago Center
Sat 03:31:07 PM 43.1289 -87.5397 263° West 258 297 9,900 -1,220 Descending Chicago Center
Sat 03:32:09 PM 43.1056 -87.6342 251° West 260 299 8,100 -1,403 Descending Chicago Center
Sat 03:33:11 PM 43.0789 -87.7258 248° West 261 300 7,000 -537 Descending Chicago Center
Sat 03:34:12 PM 43.0506 -87.8178 247° West 261 300 7,000 -488 Level Chicago Center
Sat 03:35:14 PM 43.0225 -87.9083 247° West 260 299 6,000 -1,171 Descending Chicago Center
Sat 03:36:15 PM 42.9964 -88.0022 249° West 260 299 4,600 -1,415 Descending Chicago Center
Sat 03:37:17 PM 42.9669 -88.0797 243° Southwest 261 300 3,100 -968 Descending Chicago Center
Sat 03:38:19 PM 42.9158 -88.0683 171° South 223 257 2,600 -488 Descending Chicago Center
Sat 03:39:20 PM 42.9156 -88.0086 90° East 160 184 2,100 -537 Descending Chicago Center
Sat 03:40:22 PM 42.9272 -87.9642 70° East 139 160 1,500 -581 Descending Chicago Center
Sat 03:43:00 PM 42.9333 -87.8833 83° East  Level FlightAware Approximate

Login

Don't have an account? Register now (free) for customized features, flight alerts, and more!